Terminal Aerodrome Forecast
Issued by NWS Twin Cities, MN

Home | Current Version | Previous Version | Graphics & Text | Print | Product List | Glossary Off
Versions: 1 2 3 4 5 6 7 8 9 10 11 12 13 14 15 16 17 18 19 20 21 22 23 24 25 26 27 28 29 30 31

000
FTUS43 KMPX 241136
TAFMSP
TAF
KMSP 241136Z 2412/2518 08005KT P6SM OVC070
     FM241330 11008KT P6SM VCSH OVC050
     FM241500 12011KT 6SM -RA BR OVC040
      TEMPO 2416/2420 3SM -RA BR BKN030
     FM242200 10008KT P6SM OVC020
     FM250300 12007KT 5SM -RA BR OVC015=

USA.gov is the U.S. government's official web portal to all federal, state and local government web resources and services.